Time;durP1;ratioP1;P1;durP2;ratioP2;P2;SDS_P1;SDS_P2;PMS_P1;PMS_P2;Temp;Humidity;BMP_temperature;BMP_pressure;BME280_temperature;BME280_humidity;BME280_pressure;Samples;Min_cycle;Max_cycle;Signal;HPM_P1;HPM_P2
2023/07/21 00:01:53;;;;;;;0.35;0.32;;;;;;;;;;5068326;28;20024;-80
2023/07/21 00:04:24;;;;;;;0.82;0.38;;;;;;;;;;5075904;28;20036;-79
2023/07/21 00:06:50;;;;;;;0.40;0.25;;;;;;;;;;5067419;28;20025;-79
2023/07/21 00:09:16;;;;;;;0.32;0.32;;;;;;;;;;5067005;28;20036;-79
2023/07/21 00:11:42;;;;;;;0.50;0.40;;;;;;;;;;5067648;28;20043;-79
2023/07/21 00:14:10;;;;;;;0.63;0.30;;;;;;;;;;5072706;28;20024;-79
2023/07/21 00:16:36;;;;;;;0.35;0.30;;;;;;;;;;5068528;28;20036;-80
2023/07/21 00:19:02;;;;;;;1.08;0.35;;;;;;;;;;5066140;28;20037;-80
2023/07/21 00:21:28;;;;;;;0.90;0.40;;;;;;;;;;5068161;28;20031;-80
2023/07/21 00:23:54;;;;;;;0.35;0.35;;;;;;;;;;5067546;28;20077;-80
2023/07/21 00:26:20;;;;;;;0.47;0.47;;;;;;;;;;5076454;28;20029;-79
2023/07/21 00:28:46;;;;;;;0.40;0.40;;;;;;;;;;5066752;28;20040;-79
2023/07/21 00:31:13;;;;;;;0.20;0.20;;;;;;;;;;5066944;28;20039;-79
2023/07/21 00:33:39;;;;;;;2.58;0.43;;;;;;;;;;5060750;28;20051;-79
2023/07/21 00:36:05;;;;;;;0.43;0.43;;;;;;;;;;5064443;28;20478;-79
2023/07/21 00:38:31;;;;;;;0.30;0.30;;;;;;;;;;5070226;28;20127;-79
2023/07/21 00:40:57;;;;;;;0.90;0.50;;;;;;;;;;5073445;28;20107;-79
2023/07/21 00:43:24;;;;;;;0.60;0.40;;;;;;;;;;5072494;28;20043;-79
2023/07/21 00:45:50;;;;;;;0.50;0.45;;;;;;;;;;5066641;28;20438;-79
2023/07/21 00:48:17;;;;;;;0.32;0.32;;;;;;;;;;5065681;28;20032;-80
2023/07/21 00:50:56;;;;;;;0.75;0.43;;;;;;;;;;5066522;28;20078;-79
2023/07/21 00:53:22;;;;;;;0.30;0.30;;;;;;;;;;5065832;28;20494;-79
2023/07/21 00:55:48;;;;;;;0.40;0.40;;;;;;;;;;5067906;28;20032;-79
2023/07/21 00:58:14;;;;;;;0.40;0.40;;;;;;;;;;5067448;28;20056;-79
2023/07/21 01:00:40;;;;;;;0.43;0.30;;;;;;;;;;5065717;28;20074;-79
2023/07/21 01:03:07;;;;;;;0.98;0.50;;;;;;;;;;5067205;28;20031;-79
2023/07/21 01:05:35;;;;;;;1.55;0.65;;;;;;;;;;5066777;28;20399;-79
2023/07/21 01:08:07;;;;;;;0.30;0.30;;;;;;;;;;5066566;28;20023;-79
2023/07/21 01:10:33;;;;;;;0.65;0.40;;;;;;;;;;5067915;28;20033;-79
2023/07/21 01:13:00;;;;;;;0.63;0.63;;;;;;;;;;5067097;28;20024;-79
2023/07/21 01:15:27;;;;;;;0.82;0.43;;;;;;;;;;5067551;28;20572;-80
2023/07/21 01:17:54;;;;;;;1.30;0.60;;;;;;;;;;5066990;28;20048;-80
2023/07/21 01:20:22;;;;;;;0.47;0.40;;;;;;;;;;5065651;28;20521;-79
2023/07/21 01:22:51;;;;;;;0.60;0.50;;;;;;;;;;5065718;28;20078;-79
2023/07/21 01:25:18;;;;;;;0.25;0.25;;;;;;;;;;5067495;28;20037;-79
2023/07/21 01:27:46;;;;;;;1.00;0.60;;;;;;;;;;5067337;28;20063;-80
2023/07/21 01:30:13;;;;;;;0.40;0.40;;;;;;;;;;5070035;28;20033;-79
2023/07/21 01:32:40;;;;;;;0.35;0.35;;;;;;;;;;5065102;28;20021;-79
2023/07/21 01:35:11;;;;;;;0.40;0.28;;;;;;;;;;5069279;28;20055;-79
2023/07/21 01:37:41;;;;;;;0.88;0.38;;;;;;;;;;5066348;28;20510;-80
2023/07/21 01:40:07;;;;;;;0.38;0.38;;;;;;;;;;5068280;28;20029;-80
2023/07/21 01:42:34;;;;;;;0.63;0.47;;;;;;;;;;5067101;28;20103;-79
2023/07/21 01:45:02;;;;;;;0.73;0.40;;;;;;;;;;5069339;28;20029;-79
2023/07/21 01:47:31;;;;;;;0.47;0.40;;;;;;;;;;5070079;28;20526;-79
2023/07/21 01:49:57;;;;;;;2.10;0.50;;;;;;;;;;5070994;28;20040;-79
2023/07/21 01:52:23;;;;;;;0.45;0.40;;;;;;;;;;5069730;28;20050;-79
2023/07/21 01:54:53;;;;;;;0.20;0.20;;;;;;;;;;5069987;28;20041;-79
2023/07/21 01:57:24;;;;;;;0.80;0.40;;;;;;;;;;5069914;28;20035;-79
2023/07/21 01:59:50;;;;;;;0.30;0.30;;;;;;;;;;5070141;28;20027;-79
2023/07/21 02:02:20;;;;;;;0.45;0.45;;;;;;;;;;5069735;28;20471;-79
2023/07/21 02:04:50;;;;;;;1.45;0.60;;;;;;;;;;5070438;28;20442;-79
2023/07/21 02:07:16;;;;;;;0.40;0.30;;;;;;;;;;5070626;28;20021;-80
2023/07/21 02:09:42;;;;;;;0.57;0.50;;;;;;;;;;5073066;28;20119;-79
2023/07/21 02:12:11;;;;;;;0.30;0.30;;;;;;;;;;5076387;28;20063;-80
2023/07/21 02:14:36;;;;;;;0.68;0.32;;;;;;;;;;5070669;28;20028;-80
2023/07/21 02:17:02;;;;;;;0.30;0.30;;;;;;;;;;5072285;28;20468;-80
2023/07/21 02:19:28;;;;;;;1.65;0.50;;;;;;;;;;5072700;28;20024;-80
2023/07/21 02:21:54;;;;;;;1.08;0.63;;;;;;;;;;5070210;28;20119;-80
2023/07/21 02:24:20;;;;;;;0.57;0.30;;;;;;;;;;5070143;28;20016;-80
2023/07/21 02:26:47;;;;;;;0.35;0.35;;;;;;;;;;5069490;28;20032;-79
2023/07/21 02:29:13;;;;;;;0.40;0.40;;;;;;;;;;5070280;28;20047;-77
2023/07/21 02:31:39;;;;;;;0.52;0.38;;;;;;;;;;5071404;28;20020;-80
2023/07/21 02:34:05;;;;;;;0.60;0.57;;;;;;;;;;5072846;28;20029;-80
2023/07/21 02:36:31;;;;;;;0.40;0.40;;;;;;;;;;5064865;28;20504;-80
2023/07/21 02:38:57;;;;;;;0.55;0.43;;;;;;;;;;5070099;28;20478;-80
2023/07/21 02:41:23;;;;;;;0.25;0.25;;;;;;;;;;5069428;28;20050;-80
2023/07/21 02:43:49;;;;;;;0.40;0.40;;;;;;;;;;5073727;28;20024;-80
2023/07/21 02:46:15;;;;;;;0.63;0.35;;;;;;;;;;5071080;28;20509;-78
2023/07/21 02:48:41;;;;;;;0.88;0.70;;;;;;;;;;5069139;28;20021;-80
2023/07/21 02:51:07;;;;;;;0.85;0.68;;;;;;;;;;5069155;28;20144;-79
2023/07/21 02:53:33;;;;;;;0.43;0.38;;;;;;;;;;5071133;28;20206;-80
2023/07/21 02:56:00;;;;;;;0.80;0.50;;;;;;;;;;5073915;28;20091;-80
2023/07/21 02:58:26;;;;;;;0.40;0.32;;;;;;;;;;5070107;28;20094;-80
2023/07/21 03:00:56;;;;;;;0.70;0.40;;;;;;;;;;5069217;28;20029;-80
2023/07/21 03:03:25;;;;;;;0.55;0.52;;;;;;;;;;5068183;28;20130;-80
2023/07/21 03:05:51;;;;;;;0.70;0.50;;;;;;;;;;5069545;28;20100;-80
2023/07/21 03:08:26;;;;;;;0.57;0.35;;;;;;;;;;5068768;28;20032;-78
2023/07/21 03:10:53;;;;;;;0.60;0.40;;;;;;;;;;5068605;28;20039;-80
2023/07/21 03:13:20;;;;;;;0.60;0.40;;;;;;;;;;5067903;28;20033;-80
2023/07/21 03:15:46;;;;;;;0.30;0.30;;;;;;;;;;5062709;28;20112;-80
2023/07/21 03:18:12;;;;;;;0.40;0.40;;;;;;;;;;5068496;28;20032;-80
2023/07/21 03:20:38;;;;;;;1.10;0.45;;;;;;;;;;5070820;28;20017;-80
2023/07/21 03:23:07;;;;;;;0.40;0.40;;;;;;;;;;5069251;28;20024;-80
2023/07/21 03:25:33;;;;;;;0.38;0.38;;;;;;;;;;5073169;28;20071;-80
2023/07/21 03:27:59;;;;;;;0.45;0.45;;;;;;;;;;5071274;28;20517;-79
2023/07/21 03:30:25;;;;;;;0.90;0.80;;;;;;;;;;5068401;28;20024;-80
2023/07/21 03:32:51;;;;;;;0.40;0.40;;;;;;;;;;5083426;28;20029;-80
2023/07/21 03:35:18;;;;;;;0.80;0.77;;;;;;;;;;5068232;28;20031;-80
2023/07/21 03:37:44;;;;;;;1.55;0.70;;;;;;;;;;5069223;28;20112;-80
2023/07/21 03:40:10;;;;;;;0.75;0.50;;;;;;;;;;5079484;28;20032;-80
2023/07/21 03:42:36;;;;;;;0.60;0.57;;;;;;;;;;5069449;28;20021;-79
2023/07/21 03:45:03;;;;;;;0.57;0.50;;;;;;;;;;5067050;28;20040;-79
2023/07/21 03:47:30;;;;;;;0.70;0.35;;;;;;;;;;5068673;28;20363;-80
2023/07/21 03:49:56;;;;;;;0.40;0.40;;;;;;;;;;5069630;28;20074;-80
2023/07/21 03:52:22;;;;;;;0.82;0.55;;;;;;;;;;5068702;28;20059;-79
2023/07/21 03:54:48;;;;;;;0.68;0.50;;;;;;;;;;5069607;28;20205;-80
2023/07/21 03:57:15;;;;;;;0.40;0.40;;;;;;;;;;5067358;28;20376;-80
2023/07/21 03:59:41;;;;;;;0.30;0.30;;;;;;;;;;5068858;28;20101;-79
2023/07/21 04:02:07;;;;;;;0.47;0.47;;;;;;;;;;5067259;28;20044;-80
2023/07/21 04:04:34;;;;;;;0.55;0.32;;;;;;;;;;5068416;28;20225;-80
2023/07/21 04:07:01;;;;;;;0.73;0.73;;;;;;;;;;5066369;28;20086;-80
2023/07/21 04:09:28;;;;;;;0.57;0.57;;;;;;;;;;5068374;28;20567;-80
2023/07/21 04:11:53;;;;;;;0.52;0.47;;;;;;;;;;5069155;28;20051;-80
2023/07/21 04:14:19;;;;;;;0.63;0.40;;;;;;;;;;5067425;28;20479;-80
2023/07/21 04:16:45;;;;;;;0.55;0.55;;;;;;;;;;5068565;28;20107;-79
2023/07/21 04:19:12;;;;;;;0.90;0.60;;;;;;;;;;5069679;28;20036;-80
2023/07/21 04:21:38;;;;;;;0.55;0.55;;;;;;;;;;5068548;28;20024;-80
2023/07/21 04:24:04;;;;;;;0.50;0.50;;;;;;;;;;5067168;28;20086;-80
2023/07/21 04:26:30;;;;;;;0.50;0.50;;;;;;;;;;5069652;28;20036;-80
2023/07/21 04:28:56;;;;;;;0.30;0.30;;;;;;;;;;5065668;28;20405;-80
2023/07/21 04:31:28;;;;;;;0.45;0.45;;;;;;;;;;5066381;28;20086;-80
2023/07/21 04:33:54;;;;;;;0.60;0.50;;;;;;;;;;5066892;28;20021;-80
2023/07/21 04:36:20;;;;;;;0.75;0.60;;;;;;;;;;5069703;28;20025;-80
2023/07/21 04:38:47;;;;;;;0.40;0.40;;;;;;;;;;5065984;28;20050;-79
2023/07/21 04:41:13;;;;;;;0.60;0.50;;;;;;;;;;5070158;28;20547;-79
2023/07/21 04:43:39;;;;;;;0.70;0.40;;;;;;;;;;5069480;28;20493;-79
2023/07/21 04:46:05;;;;;;;0.77;0.40;;;;;;;;;;5068304;28;20116;-79
2023/07/21 04:48:31;;;;;;;0.65;0.50;;;;;;;;;;5069420;28;20040;-79
2023/07/21 04:50:57;;;;;;;0.50;0.50;;;;;;;;;;5068860;28;20031;-80
2023/07/21 04:53:23;;;;;;;0.45;0.45;;;;;;;;;;5066661;28;20021;-79
2023/07/21 04:55:49;;;;;;;0.43;0.43;;;;;;;;;;5070703;28;20032;-79
2023/07/21 04:58:15;;;;;;;0.93;0.47;;;;;;;;;;5068343;28;20035;-80
2023/07/21 05:00:41;;;;;;;2.00;0.40;;;;;;;;;;5067712;28;20028;-79
2023/07/21 05:03:07;;;;;;;0.40;0.40;;;;;;;;;;5065424;28;20032;-79
2023/07/21 05:05:34;;;;;;;0.75;0.73;;;;;;;;;;5079989;28;20025;-79
2023/07/21 05:08:01;;;;;;;1.85;0.68;;;;;;;;;;5067235;28;20028;-79
2023/07/21 05:10:27;;;;;;;0.30;0.30;;;;;;;;;;5067892;28;20025;-80
2023/07/21 05:12:53;;;;;;;0.35;0.35;;;;;;;;;;5051029;28;20114;-79
2023/07/21 05:15:19;;;;;;;0.70;0.70;;;;;;;;;;5067760;28;20625;-80
2023/07/21 05:17:45;;;;;;;0.35;0.35;;;;;;;;;;5066835;28;20113;-79
2023/07/21 05:20:11;;;;;;;0.98;0.60;;;;;;;;;;5066567;28;20052;-79
2023/07/21 05:22:38;;;;;;;0.60;0.60;;;;;;;;;;5066255;28;20561;-79
2023/07/21 05:25:05;;;;;;;0.47;0.47;;;;;;;;;;5070868;28;20467;-79
2023/07/21 05:27:31;;;;;;;1.00;0.55;;;;;;;;;;5065525;28;20483;-79
2023/07/21 05:30:00;;;;;;;0.75;0.50;;;;;;;;;;5067124;28;20039;-79
2023/07/21 05:32:26;;;;;;;0.90;0.50;;;;;;;;;;5066441;28;20043;-78
2023/07/21 05:34:52;;;;;;;0.77;0.45;;;;;;;;;;5069132;28;20538;-79
2023/07/21 05:37:18;;;;;;;0.93;0.60;;;;;;;;;;5067436;28;20020;-79
2023/07/21 05:39:44;;;;;;;0.93;0.60;;;;;;;;;;5065307;28;20531;-79
2023/07/21 05:42:10;;;;;;;1.35;0.77;;;;;;;;;;5067803;28;20096;-79
2023/07/21 05:44:37;;;;;;;0.50;0.50;;;;;;;;;;5067135;28;20085;-79
2023/07/21 05:47:03;;;;;;;0.45;0.45;;;;;;;;;;5075617;28;20096;-79
2023/07/21 05:49:29;;;;;;;0.65;0.55;;;;;;;;;;5070980;28;20093;-78
2023/07/21 05:51:55;;;;;;;0.43;0.43;;;;;;;;;;5069155;28;20036;-79
2023/07/21 05:54:21;;;;;;;0.60;0.50;;;;;;;;;;5067391;28;20031;-79
2023/07/21 05:56:47;;;;;;;0.63;0.50;;;;;;;;;;5067529;28;20036;-79
2023/07/21 05:59:13;;;;;;;0.40;0.40;;;;;;;;;;5072129;28;20020;-79
2023/07/21 06:01:39;;;;;;;0.75;0.60;;;;;;;;;;5075616;28;20462;-78
2023/07/21 06:04:06;;;;;;;0.47;0.47;;;;;;;;;;5083189;28;20025;-78
2023/07/21 06:06:32;;;;;;;0.52;0.47;;;;;;;;;;5066911;28;20540;-80
2023/07/21 06:08:58;;;;;;;0.47;0.47;;;;;;;;;;5055113;28;20036;-79
2023/07/21 06:11:26;;;;;;;0.45;0.45;;;;;;;;;;5068058;28;20031;-79
2023/07/21 06:13:52;;;;;;;0.50;0.50;;;;;;;;;;5067409;28;20090;-78
2023/07/21 06:16:17;;;;;;;0.50;0.50;;;;;;;;;;5067652;28;20033;-79
2023/07/21 06:18:45;;;;;;;1.10;0.55;;;;;;;;;;5067166;28;20021;-80
2023/07/21 06:21:11;;;;;;;0.50;0.50;;;;;;;;;;5077720;28;20032;-80
2023/07/21 06:23:38;;;;;;;0.65;0.60;;;;;;;;;;5067376;28;20013;-80
2023/07/21 06:26:04;;;;;;;0.85;0.60;;;;;;;;;;5084809;28;20063;-80
2023/07/21 06:28:30;;;;;;;0.93;0.63;;;;;;;;;;5068808;28;20132;-80
2023/07/21 06:30:56;;;;;;;1.20;0.50;;;;;;;;;;5066225;28;20040;-77
2023/07/21 06:33:22;;;;;;;0.60;0.60;;;;;;;;;;5073116;28;20029;-79
2023/07/21 06:35:50;;;;;;;3.35;1.33;;;;;;;;;;5070767;28;20107;-79
2023/07/21 06:38:16;;;;;;;0.50;0.50;;;;;;;;;;5068413;28;20648;-79
2023/07/21 06:40:42;;;;;;;1.55;0.80;;;;;;;;;;5069146;28;20017;-80
2023/07/21 06:43:08;;;;;;;0.50;0.50;;;;;;;;;;5076750;28;20029;-79
2023/07/21 06:45:35;;;;;;;0.50;0.40;;;;;;;;;;5071833;28;20024;-80
2023/07/21 06:48:01;;;;;;;0.77;0.70;;;;;;;;;;5068372;28;20390;-79
2023/07/21 06:50:27;;;;;;;0.65;0.50;;;;;;;;;;5068964;28;20033;-75
2023/07/21 06:52:52;;;;;;;0.60;0.60;;;;;;;;;;5070636;28;20862;-75
2023/07/21 06:55:18;;;;;;;0.70;0.70;;;;;;;;;;5069767;28;20105;-75
2023/07/21 06:57:45;;;;;;;1.08;0.70;;;;;;;;;;5072853;28;20555;-76
2023/07/21 07:00:13;;;;;;;0.30;0.30;;;;;;;;;;5076574;28;20040;-76
2023/07/21 07:02:39;;;;;;;0.95;0.57;;;;;;;;;;5070102;28;20021;-73
2023/07/21 07:05:05;;;;;;;0.70;0.70;;;;;;;;;;5071861;28;20483;-73
2023/07/21 07:07:31;;;;;;;0.45;0.45;;;;;;;;;;5069920;28;20293;-73
2023/07/21 07:09:57;;;;;;;0.60;0.60;;;;;;;;;;5069570;28;20535;-75
2023/07/21 07:12:23;;;;;;;0.50;0.50;;;;;;;;;;5072961;28;20077;-77
2023/07/21 07:14:49;;;;;;;0.40;0.40;;;;;;;;;;5067859;28;20032;-75
2023/07/21 07:17:43;;;;;;;1.27;0.73;;;;;;;;;;5070603;28;20029;-75
2023/07/21 07:20:11;;;;;;;18.27;1.00;;;;;;;;;;5069739;28;20064;-75
2023/07/21 07:22:38;;;;;;;1.67;0.52;;;;;;;;;;5069949;28;20021;-75
2023/07/21 07:25:04;;;;;;;4.07;1.00;;;;;;;;;;5067945;28;20119;-75
2023/07/21 07:27:30;;;;;;;0.77;0.77;;;;;;;;;;5076241;28;20032;-76
2023/07/21 07:29:56;;;;;;;0.60;0.50;;;;;;;;;;5075028;28;20016;-73
2023/07/21 07:32:22;;;;;;;1.05;0.65;;;;;;;;;;5070160;28;20378;-74
2023/07/21 07:34:48;;;;;;;1.20;0.82;;;;;;;;;;5068638;28;20040;-76
2023/07/21 07:37:15;;;;;;;1.38;0.77;;;;;;;;;;5074862;28;20036;-76
2023/07/21 07:39:41;;;;;;;1.27;0.88;;;;;;;;;;5066866;28;20024;-75
2023/07/21 07:42:07;;;;;;;1.50;0.50;;;;;;;;;;5069618;28;20032;-75
2023/07/21 07:44:33;;;;;;;1.42;0.82;;;;;;;;;;5068007;28;20433;-75
2023/07/21 07:46:59;;;;;;;0.95;0.85;;;;;;;;;;5070846;28;20469;-75
2023/07/21 07:49:25;;;;;;;0.88;0.77;;;;;;;;;;5069485;28;20040;-76
2023/07/21 07:51:51;;;;;;;2.65;1.20;;;;;;;;;;5068917;28;20034;-75
2023/07/21 07:54:17;;;;;;;1.98;0.75;;;;;;;;;;5069321;28;20051;-74
2023/07/21 07:56:43;;;;;;;1.58;0.90;;;;;;;;;;5069596;28;20444;-75
2023/07/21 07:59:09;;;;;;;1.77;0.77;;;;;;;;;;5069053;28;20033;-75
2023/07/21 08:01:35;;;;;;;1.95;1.00;;;;;;;;;;5067660;28;20367;-75
2023/07/21 08:04:01;;;;;;;0.75;0.70;;;;;;;;;;5072694;28;20039;-75
2023/07/21 08:06:27;;;;;;;1.10;0.88;;;;;;;;;;5076826;28;20255;-75
2023/07/21 08:08:53;;;;;;;1.30;0.75;;;;;;;;;;5067285;28;20468;-75
2023/07/21 08:11:19;;;;;;;1.23;1.00;;;;;;;;;;5068854;28;20021;-74
2023/07/21 08:13:45;;;;;;;1.08;0.85;;;;;;;;;;5066424;28;20032;-73
2023/07/21 08:16:12;;;;;;;1.92;1.08;;;;;;;;;;5069440;28;20086;-74
2023/07/21 08:18:38;;;;;;;1.65;1.10;;;;;;;;;;5068357;28;20090;-75
2023/07/21 08:21:21;;;;;;;0.88;0.80;;;;;;;;;;5066246;28;20055;-75
2023/07/21 08:23:48;;;;;;;1.20;0.88;;;;;;;;;;5068414;28;20021;-75
2023/07/21 08:26:14;;;;;;;0.93;0.85;;;;;;;;;;5067235;28;20103;-74
2023/07/21 08:28:40;;;;;;;0.77;0.77;;;;;;;;;;5067276;28;20123;-75
2023/07/21 08:31:06;;;;;;;1.90;1.08;;;;;;;;;;5067513;28;20031;-76
2023/07/21 08:33:32;;;;;;;1.83;0.90;;;;;;;;;;5066486;28;20494;-75
2023/07/21 08:35:58;;;;;;;6.47;1.20;;;;;;;;;;5069004;28;20536;-76
2023/07/21 08:38:24;;;;;;;1.83;1.15;;;;;;;;;;5067948;28;20028;-75
2023/07/21 08:40:51;;;;;;;1.10;0.85;;;;;;;;;;5068215;28;20074;-75
2023/07/21 08:43:17;;;;;;;2.17;1.10;;;;;;;;;;5068466;28;20031;-75
2023/07/21 08:45:44;;;;;;;0.80;0.80;;;;;;;;;;5065466;28;20028;-75
2023/07/21 08:48:16;;;;;;;2.75;1.08;;;;;;;;;;5067640;28;20450;-74
2023/07/21 08:50:43;;;;;;;1.85;1.02;;;;;;;;;;5067657;28;20048;-74
2023/07/21 08:53:08;;;;;;;1.70;0.95;;;;;;;;;;5067510;28;20041;-74
2023/07/21 08:55:35;;;;;;;2.15;0.98;;;;;;;;;;5070138;28;20429;-75
2023/07/21 08:58:01;;;;;;;1.63;1.10;;;;;;;;;;5071544;28;20063;-75
2023/07/21 09:00:27;;;;;;;2.35;1.10;;;;;;;;;;5068519;28;20475;-75
2023/07/21 09:02:59;;;;;;;1.05;0.80;;;;;;;;;;5062580;28;20398;-75
2023/07/21 09:05:25;;;;;;;1.55;1.10;;;;;;;;;;5071511;28;20009;-75
2023/07/21 09:07:51;;;;;;;1.90;1.30;;;;;;;;;;5073314;28;20072;-75
2023/07/21 09:10:30;;;;;;;1.65;1.00;;;;;;;;;;5066142;28;20028;-75
2023/07/21 09:12:56;;;;;;;1.05;0.77;;;;;;;;;;5065357;28;20526;-75
2023/07/21 09:15:22;;;;;;;3.10;1.27;;;;;;;;;;5067321;28;20099;-76
2023/07/21 09:17:48;;;;;;;1.40;1.13;;;;;;;;;;5067333;28;20029;-75
2023/07/21 09:20:14;;;;;;;1.77;0.90;;;;;;;;;;5067612;28;20031;-75
2023/07/21 09:22:40;;;;;;;1.77;1.17;;;;;;;;;;5066719;28;20028;-75
2023/07/21 09:25:07;;;;;;;1.48;1.02;;;;;;;;;;5066887;28;20033;-75
2023/07/21 09:27:35;;;;;;;1.00;0.90;;;;;;;;;;5072619;28;20021;-75
2023/07/21 09:30:01;;;;;;;0.70;0.70;;;;;;;;;;5067334;28;20039;-76
2023/07/21 09:32:27;;;;;;;2.58;1.10;;;;;;;;;;5074408;28;20506;-75
2023/07/21 09:34:54;;;;;;;2.53;1.25;;;;;;;;;;5070101;28;20039;-73
2023/07/21 09:37:20;;;;;;;0.93;0.80;;;;;;;;;;5067512;28;20078;-76
2023/07/21 09:39:51;;;;;;;2.63;1.30;;;;;;;;;;5070118;28;20036;-76
2023/07/21 09:42:18;;;;;;;1.95;0.90;;;;;;;;;;5069820;28;20031;-76
2023/07/21 09:44:44;;;;;;;1.23;0.90;;;;;;;;;;5065856;28;20044;-77
2023/07/21 09:47:10;;;;;;;1.80;1.15;;;;;;;;;;5064192;28;20089;-77
2023/07/21 09:49:36;;;;;;;2.25;0.90;;;;;;;;;;5057740;28;20036;-77
2023/07/21 09:52:02;;;;;;;1.60;1.20;;;;;;;;;;5066684;28;20027;-76
2023/07/21 09:54:29;;;;;;;1.60;1.00;;;;;;;;;;5058880;28;20036;-76
2023/07/21 09:56:56;;;;;;;2.88;1.30;;;;;;;;;;5061527;28;20036;-75
2023/07/21 09:59:22;;;;;;;2.00;1.40;;;;;;;;;;5063265;28;20028;-76
2023/07/21 10:01:48;;;;;;;4.70;1.02;;;;;;;;;;5067524;28;20025;-76
2023/07/21 10:04:15;;;;;;;1.75;1.08;;;;;;;;;;5069043;28;20025;-76
2023/07/21 10:06:41;;;;;;;1.10;0.93;;;;;;;;;;5069275;28;20040;-76
2023/07/21 10:09:10;;;;;;;1.92;1.00;;;;;;;;;;5068225;28;20418;-79
2023/07/21 10:11:36;;;;;;;2.75;1.23;;;;;;;;;;5068288;28;20086;-81
2023/07/21 10:14:03;;;;;;;1.30;1.20;;;;;;;;;;5066892;28;20068;-81
2023/07/21 10:16:30;;;;;;;3.13;1.20;;;;;;;;;;5067783;28;20130;-72
2023/07/21 10:19:00;;;;;;;4.32;1.35;;;;;;;;;;5067940;28;20433;-74
2023/07/21 10:21:49;;;;;;;1.40;0.93;;;;;;;;;;5068152;28;20020;-73
2023/07/21 10:24:24;;;;;;;2.78;1.25;;;;;;;;;;5065687;28;20120;-73
2023/07/21 10:26:54;;;;;;;0.90;0.80;;;;;;;;;;5066833;28;20047;-73
2023/07/21 10:29:20;;;;;;;3.78;1.55;;;;;;;;;;5067517;28;20094;-73
2023/07/21 10:31:57;;;;;;;2.65;1.38;;;;;;;;;;5068518;28;20032;-73
2023/07/21 10:34:25;;;;;;;1.63;1.17;;;;;;;;;;5063266;28;20036;-74
2023/07/21 10:36:51;;;;;;;1.65;1.00;;;;;;;;;;5065855;28;20032;-74
2023/07/21 10:39:23;;;;;;;1.25;1.00;;;;;;;;;;5074099;28;20020;-87
2023/07/21 10:41:53;;;;;;;7.97;1.23;;;;;;;;;;5068235;28;20025;-85
2023/07/21 10:44:20;;;;;;;2.17;1.15;;;;;;;;;;5066093;28;20056;-75
2023/07/21 10:46:55;;;;;;;1.95;1.20;;;;;;;;;;5065850;28;20479;-75
2023/07/21 10:49:21;;;;;;;2.60;1.25;;;;;;;;;;5068029;28;20085;-76
2023/07/21 10:51:47;;;;;;;4.53;0.90;;;;;;;;;;5069993;28;20024;-75
2023/07/21 10:54:14;;;;;;;1.58;1.20;;;;;;;;;;5070055;28;20025;-76
2023/07/21 10:56:40;;;;;;;4.10;1.00;;;;;;;;;;5068348;28;20017;-76
2023/07/21 10:59:07;;;;;;;5.18;1.40;;;;;;;;;;5069728;28;20112;-76
2023/07/21 11:01:33;;;;;;;4.07;1.27;;;;;;;;;;5069547;28;20023;-75
2023/07/21 11:03:59;;;;;;;1.88;1.10;;;;;;;;;;5071342;28;20032;-76
2023/07/21 11:06:25;;;;;;;3.28;0.98;;;;;;;;;;5074755;28;20352;-76
2023/07/21 11:08:51;;;;;;;1.45;1.13;;;;;;;;;;5069767;28;20032;-75
2023/07/21 11:11:17;;;;;;;1.27;0.88;;;;;;;;;;5069427;28;20044;-76
2023/07/21 11:13:43;;;;;;;3.78;1.25;;;;;;;;;;5069830;28;20038;-75
2023/07/21 11:16:09;;;;;;;1.50;1.02;;;;;;;;;;5079057;28;20054;-76
2023/07/21 11:18:35;;;;;;;0.98;0.85;;;;;;;;;;5071585;28;20032;-76
2023/07/21 11:21:02;;;;;;;1.27;0.93;;;;;;;;;;5069472;28;20017;-75
2023/07/21 11:23:27;;;;;;;1.23;0.85;;;;;;;;;;5069494;28;20099;-75
2023/07/21 11:26:00;;;;;;;1.70;1.00;;;;;;;;;;5067849;28;20387;-76
2023/07/21 11:28:27;;;;;;;1.98;1.15;;;;;;;;;;5071494;28;20410;-76
2023/07/21 11:30:53;;;;;;;2.17;1.17;;;;;;;;;;5069224;28;20028;-76
2023/07/21 11:33:19;;;;;;;2.60;1.20;;;;;;;;;;5069233;28;20497;-75
2023/07/21 11:35:48;;;;;;;2.40;0.95;;;;;;;;;;5069331;28;20032;-75
2023/07/21 11:38:15;;;;;;;2.50;1.20;;;;;;;;;;5054458;28;20059;-76
2023/07/21 11:40:46;;;;;;;1.23;0.90;;;;;;;;;;5069020;28;20029;-75
2023/07/21 11:43:12;;;;;;;;;;;;;;;;;;5069238;28;20031;-75
2023/07/21 11:45:39;;;;;;;2.72;1.00;;;;;;;;;;5068796;28;20349;-75
2023/07/21 11:48:15;;;;;;;2.22;1.20;;;;;;;;;;5068870;28;20024;-75
2023/07/21 11:50:50;;;;;;;1.35;0.85;;;;;;;;;;5071538;28;20024;-75
2023/07/21 11:53:16;;;;;;;0.57;0.57;;;;;;;;;;5068817;28;20436;-75
2023/07/21 11:55:42;;;;;;;0.80;0.77;;;;;;;;;;5068901;28;20024;-75
2023/07/21 11:58:11;;;;;;;2.33;1.00;;;;;;;;;;5068602;28;20028;-75
2023/07/21 12:00:37;;;;;;;1.50;1.00;;;;;;;;;;5067093;28;20032;-76
2023/07/21 12:03:03;;;;;;;2.72;1.00;;;;;;;;;;5068807;28;20025;-76
2023/07/21 12:05:29;;;;;;;1.52;0.98;;;;;;;;;;5068386;28;20210;-76
2023/07/21 12:07:55;;;;;;;1.63;1.00;;;;;;;;;;5084566;28;20440;-76
2023/07/21 12:10:22;;;;;;;0.77;0.77;;;;;;;;;;5067781;28;20025;-76
2023/07/21 12:12:50;;;;;;;1.13;0.90;;;;;;;;;;5075607;28;20509;-76
2023/07/21 12:15:16;;;;;;;3.42;0.95;;;;;;;;;;5068246;28;20066;-76
2023/07/21 12:17:45;;;;;;;2.70;0.90;;;;;;;;;;5068262;28;20040;-76
2023/07/21 12:20:14;;;;;;;1.13;0.90;;;;;;;;;;5068206;28;20020;-76
2023/07/21 12:22:40;;;;;;;1.13;0.80;;;;;;;;;;5067859;28;20067;-74
2023/07/21 12:25:07;;;;;;;3.70;1.00;;;;;;;;;;5068293;28;20076;-75
2023/07/21 12:27:33;;;;;;;1.55;0.68;;;;;;;;;;5068002;28;20015;-76
2023/07/21 12:30:10;;;;;;;1.65;1.10;;;;;;;;;;5070405;28;20047;-75
2023/07/21 12:32:36;;;;;;;0.80;0.68;;;;;;;;;;5082761;28;20113;-75
2023/07/21 12:35:04;;;;;;;1.42;0.90;;;;;;;;;;5067866;28;20037;-75
2023/07/21 12:37:31;;;;;;;0.95;0.88;;;;;;;;;;5067893;28;20016;-74
2023/07/21 12:39:57;;;;;;;1.65;0.90;;;;;;;;;;5068022;28;20025;-75
2023/07/21 12:42:23;;;;;;;1.70;0.88;;;;;;;;;;5073322;28;20479;-75
2023/07/21 12:44:49;;;;;;;1.23;0.98;;;;;;;;;;5067981;28;20107;-74
2023/07/21 12:47:15;;;;;;;1.05;0.93;;;;;;;;;;5067459;28;20371;-75
2023/07/21 12:49:41;;;;;;;2.65;0.77;;;;;;;;;;5067779;28;20032;-75
2023/07/21 12:52:07;;;;;;;0.80;0.80;;;;;;;;;;5065687;28;20036;-75
2023/07/21 12:54:33;;;;;;;1.20;0.77;;;;;;;;;;5072474;28;20459;-76
2023/07/21 12:56:59;;;;;;;0.68;0.60;;;;;;;;;;5067814;28;20035;-75
2023/07/21 12:59:25;;;;;;;0.65;0.60;;;;;;;;;;5067744;28;20090;-76
2023/07/21 13:01:51;;;;;;;0.70;0.70;;;;;;;;;;5067603;28;20553;-76
2023/07/21 13:04:17;;;;;;;1.27;0.65;;;;;;;;;;5065725;28;20029;-75
2023/07/21 13:06:43;;;;;;;1.27;0.88;;;;;;;;;;5073758;28;20008;-75
2023/07/21 13:09:10;;;;;;;1.02;0.60;;;;;;;;;;5078614;28;20033;-75
2023/07/21 13:11:36;;;;;;;1.80;0.80;;;;;;;;;;5067583;28;20540;-75
2023/07/21 13:14:02;;;;;;;0.88;0.80;;;;;;;;;;5065779;28;20064;-74
2023/07/21 13:16:28;;;;;;;2.60;0.95;;;;;;;;;;5067603;28;20115;-76
2023/07/21 13:18:54;;;;;;;1.65;0.63;;;;;;;;;;5067822;28;20051;-75
2023/07/21 13:21:20;;;;;;;0.80;0.80;;;;;;;;;;5068006;28;20485;-75
2023/07/21 13:23:46;;;;;;;0.98;0.80;;;;;;;;;;5067400;28;20021;-76
2023/07/21 13:26:12;;;;;;;0.70;0.65;;;;;;;;;;5078651;28;20024;-75
2023/07/21 13:28:38;;;;;;;0.98;0.95;;;;;;;;;;5075173;28;20522;-75
2023/07/21 13:31:04;;;;;;;1.30;0.90;;;;;;;;;;5065305;28;20079;-75
2023/07/21 13:33:30;;;;;;;1.95;0.73;;;;;;;;;;5067290;28;20037;-76
2023/07/21 13:35:56;;;;;;;0.95;0.73;;;;;;;;;;5069447;28;20035;-75
2023/07/21 13:38:24;;;;;;;1.30;0.80;;;;;;;;;;5083076;28;20029;-75
2023/07/21 13:40:50;;;;;;;1.02;0.70;;;;;;;;;;5071423;28;20059;-76
2023/07/21 13:43:16;;;;;;;2.47;0.80;;;;;;;;;;5071234;28;20025;-75
2023/07/21 13:45:42;;;;;;;2.03;0.63;;;;;;;;;;5069021;28;20147;-75
2023/07/21 13:48:08;;;;;;;0.90;0.55;;;;;;;;;;5082954;28;20483;-75
2023/07/21 13:50:34;;;;;;;0.95;0.75;;;;;;;;;;5070987;28;20530;-74
2023/07/21 13:53:00;;;;;;;1.15;0.90;;;;;;;;;;5071022;28;20032;-75
2023/07/21 13:55:27;;;;;;;0.60;0.60;;;;;;;;;;5071105;28;20044;-75
2023/07/21 13:57:53;;;;;;;0.73;0.70;;;;;;;;;;5069365;28;20070;-75
2023/07/21 14:00:21;;;;;;;0.70;0.70;;;;;;;;;;5070657;28;20031;-76
2023/07/21 14:02:47;;;;;;;2.55;1.35;;;;;;;;;;5082150;28;20020;-75
2023/07/21 14:05:14;;;;;;;1.40;0.85;;;;;;;;;;5071177;28;20028;-76
2023/07/21 14:07:40;;;;;;;0.68;0.65;;;;;;;;;;5070735;28;20025;-76
2023/07/21 14:10:06;;;;;;;0.90;0.75;;;;;;;;;;5070565;28;20074;-76
2023/07/21 14:12:32;;;;;;;1.38;1.10;;;;;;;;;;5071916;28;20024;-76
2023/07/21 14:14:58;;;;;;;0.93;0.90;;;;;;;;;;5075670;28;20058;-75
2023/07/21 14:17:24;;;;;;;0.93;0.65;;;;;;;;;;5068937;28;20013;-76
2023/07/21 14:19:50;;;;;;;0.50;0.50;;;;;;;;;;5077485;28;20393;-75
2023/07/21 14:22:16;;;;;;;1.58;0.63;;;;;;;;;;5070404;28;20081;-76
2023/07/21 14:24:42;;;;;;;0.63;0.63;;;;;;;;;;5070516;28;20404;-75
2023/07/21 14:27:08;;;;;;;0.80;0.80;;;;;;;;;;5069899;28;20584;-76
2023/07/21 14:29:33;;;;;;;0.85;0.77;;;;;;;;;;5068281;28;20503;-76
2023/07/21 14:31:59;;;;;;;1.55;0.95;;;;;;;;;;5068630;28;20097;-75
2023/07/21 14:34:25;;;;;;;1.63;0.80;;;;;;;;;;5070040;28;20035;-75
2023/07/21 14:36:51;;;;;;;0.68;0.68;;;;;;;;;;5070313;28;20037;-76
2023/07/21 14:39:17;;;;;;;0.88;0.68;;;;;;;;;;5070050;28;20028;-75
2023/07/21 14:41:43;;;;;;;2.00;0.80;;;;;;;;;;5068516;28;20037;-76